Aiwamaru — JD2602 — position and weather

sailwx.info

Track history (hours):
 
Tides and Currents Weather Stations Pressure Air Temp Water Temp Dewpoint Dewpoint Depression Visibility Wind Speed Wind Dir Waves Ship Positions

Aiwamaru

Last reported at 2015-Jul-02 02:33 UTC. Time now 2015-Jul-04 20:44 UTC.
Position N 35°07' E 139°41'.

Length 64 m; draft 4.8 m.

Type: Tanker. MMSI: 431000508.

Date/timePositionNaut miles runAvg speedWind from/ knotsBaromVisibWave heightAir tempDewpointWater temp
2015-Jul-02 02:33N 35°07' E 139°41'10 9.8
2015-Jul-02 01:33N 35°16' E 139°46'6 5.9
2015-Jul-02 00:33N 35°20' E 139°41'0 0.0
2015-Jul-01 23:34N 35°20' E 139°41'0 0.0
2015-Jul-01 22:34N 35°20' E 139°41'0 0.0
2015-Jul-01 21:34N 35°20' E 139°41'0 0.0
2015-Jul-01 20:34N 35°20' E 139°41'0 0.1
2015-Jul-01 19:31N 35°21' E 139°41'0 0.0
2015-Jul-01 18:33N 35°21' E 139°41'0 0.0
2015-Jul-01 17:33N 35°21' E 139°41'0 0.0
2015-Jul-01 16:33N 35°21' E 139°41'0 0.1
2015-Jul-01 15:31N 35°21' E 139°41'0 0.1
2015-Jul-01 14:30N 35°20' E 139°41'0 0.0
2015-Jul-01 13:33N 35°20' E 139°41'0 0.0
2015-Jul-01 12:27N 35°20' E 139°41'0 0.0
2015-Jul-01 11:29N 35°21' E 139°41'0 0.1
2015-Jul-01 10:33N 35°20' E 139°41'0 0.1
2015-Jul-01 09:33N 35°21' E 139°41'0 0.0
2015-Jul-01 08:33N 35°21' E 139°41'0 0.0
2015-Jul-01 07:33N 35°21' E 139°41'0 0.0
2015-Jul-01 06:33N 35°21' E 139°41'0 0.1
2015-Jul-01 05:33N 35°21' E 139°41'0 0.0
2015-Jul-01 04:33N 35°21' E 139°41'0 0.0
2015-Jul-01 03:31N 35°21' E 139°41'0 0.1
2015-Jul-01 02:33N 35°20' E 139°41'0 0.1
2015-Jul-01 01:33N 35°20' E 139°41'0 0.1
2015-Jul-01 00:33N 35°20' E 139°41'0 0.0
2015-Jun-30 23:33N 35°20' E 139°41'0 0.0
2015-Jun-30 22:33N 35°20' E 139°41'7 7.0
2015-Jun-30 21:33N 35°15' E 139°47'1110.8
2015-Jun-30 20:34N 35°04' E 139°45'16 6.9
2015-Jun-30 18:12N 34°56' E 140°02'710.9
2015-Jun-30 17:31N 35°00' E 140°10'2110.5
2015-Jun-30 15:32N 35°14' E 140°29'44 8.8
2015-Jun-30 10:30N 35°57' E 140°44'4 4.2
2015-Jun-30 09:31N 35°53' E 140°41'0 0.0
2015-Jun-30 07:32N 35°53' E 140°41'5 4.8
2015-Jun-30 06:32N 35°58' E 140°43'4310.2
2015-Jun-30 02:18N 35°15' E 140°32'2111.8
2015-Jun-30 00:33N 35°01' E 140°14'2511.0
2015-Jun-29 22:19N 34°51' E 139°47'  
Track history (hours):
 
Tides and Currents Weather Stations Pressure Air Temp Water Temp Dewpoint Dewpoint Depression Visibility Wind Speed Wind Dir Waves Ship Positions

Aiwamaru

Last reported at 2015-Jul-02 02:33 UTC. Time now 2015-Jul-04 20:44 UTC.
Position N 35°07' E 139°41'.

Length 64 m; draft 4.8 m.

Type: Tanker. MMSI: 431000508.

Date/timePositionNaut miles runAvg speedWind from/ knotsBaromVisibWave heightAir tempDewpointWater temp
2015-Jul-02 02:33N 35°07' E 139°41'10 9.8
2015-Jul-02 01:33N 35°16' E 139°46'6 5.9
2015-Jul-02 00:33N 35°20' E 139°41'0 0.0
2015-Jul-01 23:34N 35°20' E 139°41'0 0.0
2015-Jul-01 22:34N 35°20' E 139°41'0 0.0
2015-Jul-01 21:34N 35°20' E 139°41'0 0.0
2015-Jul-01 20:34N 35°20' E 139°41'0 0.1
2015-Jul-01 19:31N 35°21' E 139°41'0 0.0
2015-Jul-01 18:33N 35°21' E 139°41'0 0.0
2015-Jul-01 17:33N 35°21' E 139°41'0 0.0
2015-Jul-01 16:33N 35°21' E 139°41'0 0.1
2015-Jul-01 15:31N 35°21' E 139°41'0 0.1
2015-Jul-01 14:30N 35°20' E 139°41'0 0.0
2015-Jul-01 13:33N 35°20' E 139°41'0 0.0
2015-Jul-01 12:27N 35°20' E 139°41'0 0.0
2015-Jul-01 11:29N 35°21' E 139°41'0 0.1
2015-Jul-01 10:33N 35°20' E 139°41'0 0.1
2015-Jul-01 09:33N 35°21' E 139°41'0 0.0
2015-Jul-01 08:33N 35°21' E 139°41'0 0.0
2015-Jul-01 07:33N 35°21' E 139°41'0 0.0
2015-Jul-01 06:33N 35°21' E 139°41'0 0.1
2015-Jul-01 05:33N 35°21' E 139°41'0 0.0
2015-Jul-01 04:33N 35°21' E 139°41'0 0.0
2015-Jul-01 03:31N 35°21' E 139°41'0 0.1
2015-Jul-01 02:33N 35°20' E 139°41'0 0.1
2015-Jul-01 01:33N 35°20' E 139°41'0 0.1
2015-Jul-01 00:33N 35°20' E 139°41'0 0.0
2015-Jun-30 23:33N 35°20' E 139°41'0 0.0
2015-Jun-30 22:33N 35°20' E 139°41'7 7.0
2015-Jun-30 21:33N 35°15' E 139°47'1110.8
2015-Jun-30 20:34N 35°04' E 139°45'16 6.9
2015-Jun-30 18:12N 34°56' E 140°02'710.9
2015-Jun-30 17:31N 35°00' E 140°10'2110.5
2015-Jun-30 15:32N 35°14' E 140°29'44 8.8
2015-Jun-30 10:30N 35°57' E 140°44'4 4.2
2015-Jun-30 09:31N 35°53' E 140°41'0 0.0
2015-Jun-30 07:32N 35°53' E 140°41'5 4.8
2015-Jun-30 06:32N 35°58' E 140°43'4310.2
2015-Jun-30 02:18N 35°15' E 140°32'2111.8
2015-Jun-30 00:33N 35°01' E 140°14'2511.0
2015-Jun-29 22:19N 34°51' E 139°47'  

Dump ship's entire track history